Stations météo

réclame
Mon MeteoGroup
Getafe Airbase, Espagne (8225): Température de l'air & dewpoint: 12.10.2017 05:00:00 - 18.10.2017 05:00:00 (CEST)Getafe Airbase, Espagne (8225): Vitesse du vent: 12.10.2017 05:00:00 - 18.10.2017 05:00:00 (CEST)Getafe Airbase, Espagne (8225): Direction du vent: 12.10.2017 05:00:00 - 18.10.2017 05:00:00 (CEST)Getafe Airbase, Espagne (8225): visibility: 12.10.2017 05:00:00 - 18.10.2017 05:00:00 (CEST)
Date & Time tt [°C] td [°C] ff [km/h] ff [knt] dd vv [km]
18.10.2017 05:00:00 - - - - - -
18.10.2017 04:00:00 - - - - - -
18.10.2017 03:00:00 - - - - - -
18.10.2017 02:00:00 - - - - - -
18.10.2017 01:00:00 - - - - - -
18.10.2017 00:00:00 - - - - - -
17.10.2017 23:00:00 - - - - - -
17.10.2017 22:00:00 - - - - - -
17.10.2017 21:00:00 - - - - - -
17.10.2017 20:00:00 15,0 13,0 9 5 S 10
17.10.2017 19:00:00 16,0 14,0 9 5 SSW 10
17.10.2017 18:00:00 18,0 13,0 9 5 SW 10
17.10.2017 17:00:00 19,0 10,0 9 5 WNW 10
17.10.2017 16:00:00 21,0 10,0 15 8 W 10
17.10.2017 15:00:00 21,0 9,0 22 12 SSW 10
17.10.2017 14:00:00 21,0 9,0 18 10 SW 10
17.10.2017 13:00:00 18,0 12,0 16 9 SSE 10
17.10.2017 12:00:00 17,0 11,0 9 5 ESE 10
17.10.2017 11:00:00 15,0 10,0 11 6 ENE 10
17.10.2017 10:00:00 14,0 10,0 11 6 ENE 10
17.10.2017 09:00:00 14,0 9,0 9 5 ENE 10
17.10.2017 08:00:00 13,0 10,0 5 3 ENE 10
17.10.2017 07:00:00 13,0 10,0 11 6 ENE 10
17.10.2017 06:00:00 - - - - - -
17.10.2017 05:00:00 - - - - - -
17.10.2017 04:00:00 - - - - - -
17.10.2017 03:00:00 - - - - - -
17.10.2017 02:00:00 - - - - - -
17.10.2017 01:00:00 - - - - - -
17.10.2017 00:00:00 - - - - - -
16.10.2017 23:00:00 - - - - - -
16.10.2017 22:00:00 - - - - - -
16.10.2017 21:00:00 - - - - - -
16.10.2017 20:00:00 23,0 4,0 8 4 ESE 10
16.10.2017 19:00:00 26,0 5,0 9 5 ESE 10
16.10.2017 18:00:00 27,0 6,0 8 4 S 10
16.10.2017 17:00:00 27,0 7,0 8 4 SE 10
16.10.2017 16:00:00 26,0 9,0 4 2 E 10
16.10.2017 15:00:00 25,0 10,0 8 4 ENE 10
16.10.2017 14:00:00 23,0 11,0 5 3 E 10
16.10.2017 13:00:00 20,0 11,0 5 3 ENE 10
16.10.2017 12:00:00 19,0 12,0 11 6 ENE 10
16.10.2017 11:00:00 18,0 12,0 13 7 ENE 10
16.10.2017 10:00:00 17,0 12,0 13 7 ENE 10
16.10.2017 09:00:00 15,0 12,0 11 6 NE 10
16.10.2017 08:00:00 14,0 12,0 11 6 NE 10
16.10.2017 07:00:00 15,0 11,0 11 6 NE 10
16.10.2017 06:00:00 - - - - - -
16.10.2017 05:00:00 - - - - - -
16.10.2017 04:00:00 - - - - - -
16.10.2017 03:00:00 - - - - - -
16.10.2017 02:00:00 - - - - - -
16.10.2017 01:00:00 - - - - - -
16.10.2017 00:00:00 - - - - - -
15.10.2017 23:00:00 - - - - - -
15.10.2017 22:00:00 22,0 5,0 15 8 ESE 10
15.10.2017 21:00:00 22,0 5,0 9 5 ESE 10
15.10.2017 20:00:00 24,0 6,0 8 4 ESE 10
15.10.2017 19:00:00 28,0 6,0 13 7 SSE 10
15.10.2017 18:00:00 29,0 8,0 9 5 SE 10
15.10.2017 17:00:00 29,0 8,0 11 6 SE 10
15.10.2017 16:00:00 28,0 9,0 9 5 ESE 10
15.10.2017 15:00:00 27,0 9,0 8 4 E 10
15.10.2017 14:00:00 26,0 10,0 9 5 ENE 10
15.10.2017 13:00:00 23,0 10,0 9 5 ENE 10
15.10.2017 12:00:00 21,0 10,0 11 6 E 10
15.10.2017 11:00:00 19,0 9,0 11 6 ENE 10
15.10.2017 10:00:00 18,0 8,0 8 4 ENE 10
15.10.2017 09:00:00 15,0 6,0 5 3 NE 10
15.10.2017 08:00:00 15,0 7,0 5 3 NE 10
15.10.2017 07:00:00 16,0 6,0 2 1 NE 10
15.10.2017 06:00:00 - - - - - -
15.10.2017 05:00:00 - - - - - -
15.10.2017 04:00:00 - - - - - -
15.10.2017 03:00:00 - - - - - -
15.10.2017 02:00:00 - - - - - -
15.10.2017 01:00:00 - - - - - -
15.10.2017 00:00:00 - - - - - -
14.10.2017 23:00:00 - - - - - -
14.10.2017 22:00:00 - - - - - -
14.10.2017 21:00:00 - - - - - -
14.10.2017 20:00:00 24,0 4,0 0 0 N 10
14.10.2017 19:00:00 27,0 3,0 11 6 WSW 10
14.10.2017 18:00:00 29,0 4,0 9 5 SW 10
14.10.2017 17:00:00 29,0 5,0 11 6 SW 10
14.10.2017 16:00:00 28,0 5,0 8 4 S 10
14.10.2017 15:00:00 27,0 6,0 8 4 SSW 10
14.10.2017 14:00:00 26,0 7,0 5 3 S 10
14.10.2017 13:00:00 23,0 7,0 0 0 N 10
14.10.2017 12:00:00 20,0 6,0 0 0 N 10
14.10.2017 11:00:00 19,0 6,0 5 3 ENE 10
14.10.2017 10:00:00 16,0 4,0 0 0 N 10
14.10.2017 09:00:00 12,0 4,0 0 0 N 10
14.10.2017 08:00:00 11,0 4,0 0 0 N 10
14.10.2017 07:00:00 12,0 4,0 0 0 N 10
14.10.2017 06:00:00 - - - - - -
14.10.2017 05:00:00 - - - - - -
14.10.2017 04:00:00 - - - - - -
14.10.2017 03:00:00 - - - - - -
14.10.2017 02:00:00 - - - - - -
14.10.2017 01:00:00 - - - - - -
14.10.2017 00:00:00 - - - - - -
13.10.2017 23:00:00 - - - - - -
13.10.2017 22:00:00 - - - - - -
13.10.2017 21:00:00 - - - - - -
13.10.2017 20:00:00 26,0 5,0 5 3 W 10
13.10.2017 19:00:00 28,0 5,0 11 6 WSW 10
13.10.2017 18:00:00 29,0 6,0 11 6 SW 10
13.10.2017 17:00:00 29,0 6,0 15 8 SW 10
13.10.2017 16:00:00 29,0 6,0 21 11 SSW 10
13.10.2017 15:00:00 28,0 7,0 11 6 S 10
13.10.2017 14:00:00 27,0 7,0 5 3 SSE 10
13.10.2017 13:00:00 24,0 7,0 0 0 N 10
13.10.2017 12:00:00 22,0 6,0 4 2 ESE 10
13.10.2017 11:00:00 20,0 6,0 5 3 NNE 10
13.10.2017 10:00:00 17,0 4,0 0 0 N 10
13.10.2017 09:00:00 - - - - - -
13.10.2017 08:00:00 13,0 3,0 4 2 NE 10
13.10.2017 07:00:00 12,0 2,0 4 2 NE 10
13.10.2017 06:00:00 - - - - - -
13.10.2017 05:00:00 - - - - - -
13.10.2017 04:00:00 - - - - - -
13.10.2017 03:00:00 - - - - - -
13.10.2017 02:00:00 - - - - - -
13.10.2017 01:00:00 - - - - - -
13.10.2017 00:00:00 - - - - - -
12.10.2017 23:00:00 - - - - - -
12.10.2017 22:00:00 - - - - - -
12.10.2017 21:00:00 22,0 4,0 5 3 NNW 10
12.10.2017 20:00:00 25,0 4,0 0 0 N 10
12.10.2017 19:00:00 29,0 4,0 0 0 N 10
12.10.2017 18:00:00 29,0 3,0 4 2 SSE 10
12.10.2017 17:00:00 29,0 3,0 4 2 S 10
12.10.2017 16:00:00 28,0 3,0 4 2 ENE 10
12.10.2017 15:00:00 27,0 3,0 4 2 - 10
12.10.2017 14:00:00 25,0 3,0 4 2 ENE 10
12.10.2017 13:00:00 21,0 2,0 5 3 - 10
12.10.2017 12:00:00 19,0 2,0 8 4 NE 10
12.10.2017 11:00:00 17,0 1,0 5 3 NE 10
12.10.2017 10:00:00 15,0 1,0 8 4 NE 10
12.10.2017 09:00:00 11,0 1,0 4 2 NE 10
12.10.2017 08:00:00 11,0 1,0 5 3 ENE 10
12.10.2017 07:00:00 10,0 0,0 2 1 NE 10
12.10.2017 06:00:00 - - - - - -
12.10.2017 05:00:00 - - - - - -

tt = Température de l'air
td = dewpoint
ff = Vitesse du vent
dd = Direction du vent
vv = visibility

stations d'obs. à proximité